createdAt,value
2023-09-08T00:02:26.833Z,7.55
2023-09-08T00:04:54.709Z,6.95
2023-09-08T00:07:22.041Z,7.03
2023-09-08T00:09:49.181Z,7.10
2023-09-08T00:12:16.346Z,7.60
2023-09-08T00:14:43.696Z,7.93
2023-09-08T00:17:10.806Z,7.63
2023-09-08T00:19:38.036Z,7.63
2023-09-08T00:22:07.446Z,7.28
2023-09-08T00:24:35.263Z,7.23
2023-09-08T00:27:02.502Z,7.05
2023-09-08T00:29:29.732Z,7.90
2023-09-08T00:31:57.036Z,7.15
2023-09-08T00:34:24.058Z,7.80
2023-09-08T00:36:52.226Z,6.90
2023-09-08T00:39:19.418Z,7.20
2023-09-08T00:41:46.469Z,8.18
2023-09-08T00:44:13.628Z,7.65
2023-09-08T00:46:41.515Z,7.45
2023-09-08T00:49:10.283Z,7.20
2023-09-08T00:51:39.210Z,6.40
2023-09-08T00:54:07.686Z,6.70
2023-09-08T00:56:37.264Z,7.05
2023-09-08T00:59:05.429Z,7.00
2023-09-08T01:01:32.814Z,6.67
2023-09-08T01:03:59.868Z,7.13
2023-09-08T01:06:28.417Z,7.47
2023-09-08T01:08:56.457Z,7.63
2023-09-08T01:11:25.092Z,7.63
2023-09-08T01:13:52.045Z,7.30
2023-09-08T01:16:19.256Z,7.10
2023-09-08T01:18:49.731Z,7.45
2023-09-08T01:22:03.590Z,7.10
2023-09-08T01:24:58.142Z,7.05
2023-09-08T01:27:26.748Z,7.57
2023-09-08T01:29:55.457Z,7.13
2023-09-08T01:32:23.115Z,7.10
2023-09-08T01:34:50.530Z,7.22
2023-09-08T01:37:17.537Z,7.00
2023-09-08T01:39:44.475Z,7.10
2023-09-08T01:42:11.468Z,6.97
2023-09-08T01:44:38.529Z,7.18
2023-09-08T01:47:05.599Z,7.72
2023-09-08T01:49:32.582Z,7.55
2023-09-08T01:51:59.624Z,7.87
2023-09-08T01:54:26.730Z,7.13
2023-09-08T01:56:53.706Z,7.60
2023-09-08T01:59:20.638Z,7.43
2023-09-08T02:01:47.737Z,7.13
2023-09-08T02:04:14.786Z,6.67
2023-09-08T02:06:42.134Z,7.55
2023-09-08T02:09:13.011Z,7.22
2023-09-08T02:11:40.142Z,8.35
2023-09-08T02:14:08.039Z,7.65
2023-09-08T02:16:35.047Z,6.43
2023-09-08T02:19:02.096Z,7.32
2023-09-08T02:21:29.327Z,7.43
2023-09-08T02:23:56.410Z,7.47
2023-09-08T02:26:23.785Z,7.90
2023-09-08T02:28:50.731Z,7.80
2023-09-08T02:31:19.264Z,7.53
2023-09-08T02:33:46.460Z,7.28
2023-09-08T02:36:13.542Z,7.57
2023-09-08T02:38:41.769Z,8.35
2023-09-08T02:41:09.356Z,6.63
2023-09-08T02:43:36.304Z,7.07
2023-09-08T02:46:04.299Z,7.68
2023-09-08T02:48:32.361Z,8.18
2023-09-08T02:50:59.681Z,7.50
2023-09-08T02:53:29.697Z,7.33
2023-09-08T02:55:57.328Z,7.25
2023-09-08T02:58:24.476Z,8.00
2023-09-08T03:00:53.163Z,7.57
2023-09-08T03:03:20.851Z,7.65
2023-09-08T03:05:48.124Z,7.23
2023-09-08T03:08:15.270Z,7.65
2023-09-08T03:10:43.069Z,6.78
2023-09-08T03:13:09.998Z,7.82
2023-09-08T03:15:37.651Z,7.28
2023-09-08T03:18:04.978Z,7.33
2023-09-08T03:20:32.276Z,7.38
2023-09-08T03:23:00.160Z,7.07
2023-09-08T03:25:27.270Z,7.80
2023-09-08T03:27:54.197Z,8.10
2023-09-08T03:30:21.245Z,7.23
2023-09-08T03:32:48.265Z,7.45
2023-09-08T03:35:15.408Z,7.10
2023-09-08T03:37:43.357Z,7.32
2023-09-08T03:40:10.794Z,7.78
2023-09-08T03:42:37.976Z,7.10
2023-09-08T03:45:05.649Z,7.95
2023-09-08T03:47:32.794Z,8.18
2023-09-08T03:49:59.923Z,7.10
2023-09-08T03:52:27.337Z,8.25
2023-09-08T03:54:54.289Z,8.17
2023-09-08T03:57:21.328Z,7.60
2023-09-08T03:59:48.306Z,7.68
2023-09-08T04:02:15.380Z,8.00
2023-09-08T04:04:42.350Z,7.80
2023-09-08T04:07:09.900Z,8.03
2023-09-08T04:09:36.952Z,8.02
2023-09-08T04:12:04.116Z,7.20
2023-09-08T04:14:32.336Z,7.38
2023-09-08T04:16:59.400Z,7.05
2023-09-08T04:19:27.210Z,7.00
2023-09-08T04:21:54.188Z,7.10
2023-09-08T04:24:21.803Z,7.60
2023-09-08T04:26:48.920Z,7.55
2023-09-08T04:29:16.101Z,7.10
2023-09-08T04:31:43.340Z,6.30
2023-09-08T04:34:10.461Z,6.82
2023-09-08T04:36:37.491Z,7.13
2023-09-08T04:39:04.728Z,6.80
2023-09-08T04:41:31.903Z,6.57
2023-09-08T04:43:59.537Z,6.30
2023-09-08T04:46:26.807Z,6.57
2023-09-08T04:48:54.014Z,6.53
2023-09-08T04:51:23.088Z,6.57
2023-09-08T04:53:50.612Z,5.90
2023-09-08T04:56:17.864Z,5.73
2023-09-08T04:58:45.055Z,6.20
2023-09-08T05:01:13.294Z,5.95
2023-09-08T05:03:40.814Z,5.53
2023-09-08T05:06:08.818Z,5.65
2023-09-08T05:08:36.028Z,6.47
2023-09-08T05:11:03.945Z,6.03
2023-09-08T05:13:32.266Z,6.25
2023-09-08T05:16:12.186Z,6.00
2023-09-08T05:18:43.174Z,5.72
2023-09-08T05:21:10.693Z,6.37
2023-09-08T05:23:37.994Z,6.20
2023-09-08T05:26:05.057Z,6.00
2023-09-08T05:28:32.192Z,6.25
2023-09-08T05:30:59.299Z,6.45
2023-09-08T05:33:26.459Z,5.90
2023-09-08T05:35:53.999Z,6.50
2023-09-08T05:38:21.157Z,6.40
2023-09-08T05:40:48.252Z,6.07
2023-09-08T05:43:15.957Z,6.32
2023-09-08T05:45:43.305Z,6.03
2023-09-08T05:48:10.746Z,5.93
2023-09-08T05:50:38.683Z,5.85
2023-09-08T05:53:07.415Z,6.10
2023-09-08T05:55:34.441Z,5.90
2023-09-08T05:58:01.625Z,5.23
2023-09-08T06:00:28.724Z,6.05
2023-09-08T06:02:56.098Z,5.30
2023-09-08T06:05:23.248Z,5.53
2023-09-08T06:08:01.378Z,5.88
2023-09-08T06:10:34.044Z,6.20
2023-09-08T06:13:02.588Z,5.68
2023-09-08T06:15:30.253Z,5.57
2023-09-08T06:17:57.620Z,6.28
2023-09-08T06:20:26.094Z,5.60
2023-09-08T06:22:53.952Z,5.37
2023-09-08T06:25:21.156Z,5.03
2023-09-08T06:27:48.625Z,5.55
2023-09-08T06:30:17.458Z,5.47
2023-09-08T06:32:44.771Z,5.85
2023-09-08T06:35:12.368Z,5.57
2023-09-08T06:37:40.216Z,5.45
2023-09-08T06:40:08.440Z,5.75
2023-09-08T06:42:35.830Z,5.63
2023-09-08T06:45:14.810Z,5.15
2023-09-08T06:47:41.961Z,5.53
2023-09-08T06:50:09.461Z,5.07
2023-09-08T06:52:36.773Z,5.65
2023-09-08T06:55:04.308Z,5.50
2023-09-08T06:57:31.402Z,6.10
2023-09-08T06:59:58.475Z,5.10
2023-09-08T07:02:25.852Z,5.60
2023-09-08T07:04:53.220Z,5.78
2023-09-08T07:07:21.688Z,5.60
2023-09-08T07:09:49.661Z,5.43
2023-09-08T07:12:16.845Z,5.03
2023-09-08T07:14:44.238Z,5.10
2023-09-08T07:17:11.403Z,5.18
2023-09-08T07:19:38.885Z,5.18
2023-09-08T07:22:07.691Z,5.25
2023-09-08T07:24:34.785Z,5.10
2023-09-08T07:27:02.888Z,5.53
2023-09-08T07:29:30.720Z,5.32
2023-09-08T07:31:57.993Z,4.93
2023-09-08T07:34:25.146Z,5.43
2023-09-08T07:36:52.818Z,4.77
2023-09-08T07:39:20.001Z,5.30
2023-09-08T07:41:47.168Z,5.57
2023-09-08T07:44:14.607Z,5.80
2023-09-08T07:46:41.957Z,5.20
2023-09-08T07:49:08.951Z,5.70
2023-09-08T07:51:35.957Z,5.70
2023-09-08T07:54:04.946Z,4.80
2023-09-08T07:56:32.008Z,4.93
2023-09-08T07:58:59.047Z,5.47
2023-09-08T08:01:26.273Z,4.87
2023-09-08T08:03:53.315Z,4.70
2023-09-08T08:06:20.485Z,5.00
2023-09-08T08:08:47.509Z,5.32
2023-09-08T08:11:18.787Z,5.18
2023-09-08T08:13:47.196Z,5.00
2023-09-08T08:16:14.270Z,4.90
2023-09-08T08:18:41.775Z,4.97
2023-09-08T08:21:09.068Z,4.70
2023-09-08T08:23:37.292Z,4.20
2023-09-08T08:26:04.651Z,4.60
2023-09-08T08:28:31.793Z,4.50
2023-09-08T08:30:59.017Z,4.38
2023-09-08T08:33:27.176Z,4.57
2023-09-08T08:35:55.007Z,4.00
2023-09-08T08:38:22.160Z,4.90
2023-09-08T08:40:49.231Z,4.47
2023-09-08T08:43:16.536Z,3.75
2023-09-08T08:45:45.512Z,4.47
2023-09-08T08:48:15.342Z,4.22
2023-09-08T08:50:44.349Z,3.93
2023-09-08T08:53:13.703Z,4.72
2023-09-08T08:55:41.918Z,4.57
2023-09-08T08:58:09.048Z,4.57
2023-09-08T09:00:40.300Z,4.38
2023-09-08T09:03:15.444Z,4.60
2023-09-08T09:05:47.945Z,4.75
2023-09-08T09:08:18.726Z,4.78
2023-09-08T09:10:45.716Z,4.70
2023-09-08T09:13:12.739Z,4.43
2023-09-08T09:15:39.768Z,4.50
2023-09-08T09:18:09.027Z,4.90
2023-09-08T09:20:36.382Z,4.93
2023-09-08T09:23:04.644Z,4.75
2023-09-08T09:25:32.890Z,4.93
2023-09-08T09:28:02.708Z,4.67
2023-09-08T09:30:52.381Z,4.85
2023-09-08T09:33:19.681Z,4.55
2023-09-08T09:35:49.263Z,4.63
2023-09-08T09:38:16.744Z,4.45
2023-09-08T09:40:43.745Z,4.23
2023-09-08T09:43:12.780Z,3.95
2023-09-08T09:45:41.468Z,4.60
2023-09-08T09:48:10.160Z,4.22
2023-09-08T09:50:41.853Z,4.07
2023-09-08T09:53:12.213Z,4.17
2023-09-08T09:55:41.245Z,3.85
2023-09-08T09:58:11.659Z,3.72
2023-09-08T10:00:41.805Z,4.00
2023-09-08T10:03:09.628Z,4.28
2023-09-08T10:05:38.031Z,4.20
2023-09-08T10:08:05.547Z,4.70
2023-09-08T10:10:33.885Z,4.55
2023-09-08T10:13:06.637Z,4.30
2023-09-08T10:15:34.747Z,4.53
2023-09-08T10:18:06.152Z,4.27
2023-09-08T10:20:34.833Z,4.45
2023-09-08T10:23:23.795Z,4.57
2023-09-08T10:25:55.733Z,4.68
2023-09-08T10:28:27.149Z,4.93
2023-09-08T10:30:54.955Z,4.37
2023-09-08T10:33:25.155Z,4.70
2023-09-08T10:35:53.045Z,4.93
2023-09-08T10:38:27.802Z,4.85
2023-09-08T10:41:15.274Z,4.72
2023-09-08T10:43:44.344Z,4.57
2023-09-08T10:46:22.092Z,4.60
2023-09-08T10:48:49.261Z,5.03
2023-09-08T10:51:18.495Z,5.28
2023-09-08T10:53:49.683Z,4.95
2023-09-08T10:56:18.479Z,4.80
2023-09-08T10:58:51.522Z,4.55
2023-09-08T11:01:28.742Z,5.40
2023-09-08T11:03:56.422Z,5.10
2023-09-08T11:06:23.816Z,4.90
2023-09-08T11:08:56.933Z,4.43
2023-09-08T11:11:24.393Z,5.13
2023-09-08T11:13:51.469Z,4.60
2023-09-08T11:16:23.120Z,4.40
2023-09-08T11:18:52.648Z,4.22
2023-09-08T11:21:20.016Z,5.07
2023-09-08T11:23:47.160Z,4.43
2023-09-08T11:26:14.560Z,4.78
2023-09-08T11:28:43.190Z,4.18
2023-09-08T11:31:13.973Z,4.10
2023-09-08T11:33:42.953Z,4.37
2023-09-08T11:36:16.237Z,4.70
2023-09-08T11:38:46.278Z,5.38
2023-09-08T11:41:13.674Z,5.38
2023-09-08T11:43:41.091Z,4.97
2023-09-08T11:46:08.430Z,5.00
2023-09-08T11:48:36.639Z,5.70
2023-09-08T11:51:04.093Z,5.25
2023-09-08T11:53:33.169Z,5.15
2023-09-08T11:56:00.469Z,5.30
2023-09-08T11:58:27.657Z,5.13
2023-09-08T12:00:55.028Z,5.57
2023-09-08T12:03:22.037Z,4.93
2023-09-08T12:05:53.099Z,4.93
2023-09-08T12:08:20.613Z,5.50
2023-09-08T12:10:47.867Z,5.40
2023-09-08T12:13:22.538Z,5.57
2023-09-08T12:15:49.983Z,5.47
2023-09-08T12:18:17.210Z,4.97
2023-09-08T12:20:45.181Z,5.18
2023-09-08T12:23:20.767Z,4.63
2023-09-08T12:25:52.834Z,4.15
2023-09-08T12:28:23.502Z,5.30
2023-09-08T12:30:51.848Z,4.68
2023-09-08T12:33:21.381Z,4.90
2023-09-08T12:35:49.706Z,4.60
2023-09-08T12:38:16.674Z,4.38
2023-09-08T12:40:43.861Z,4.88
2023-09-08T12:43:22.994Z,4.55
2023-09-08T12:45:55.992Z,4.88
2023-09-08T12:48:23.710Z,4.67
2023-09-08T12:50:51.026Z,4.55
2023-09-08T12:53:19.507Z,4.90
2023-09-08T12:55:47.472Z,5.05
2023-09-08T12:58:14.449Z,5.10
2023-09-08T13:00:41.474Z,5.10
2023-09-08T13:03:08.495Z,5.15
2023-09-08T13:05:35.813Z,4.72
2023-09-08T13:08:02.881Z,4.70
2023-09-08T13:10:29.931Z,5.00
2023-09-08T13:12:56.864Z,5.30
2023-09-08T13:15:25.152Z,4.85
2023-09-08T13:17:52.586Z,5.13
2023-09-08T13:20:20.872Z,4.82
2023-09-08T13:22:47.971Z,4.95
2023-09-08T13:25:15.203Z,4.17
2023-09-08T13:27:45.515Z,4.60
2023-09-08T13:30:14.919Z,5.07
2023-09-08T13:32:42.705Z,5.25
2023-09-08T13:35:09.971Z,5.25
2023-09-08T13:37:39.004Z,5.80
2023-09-08T13:40:07.012Z,5.63
2023-09-08T13:42:34.222Z,5.72
2023-09-08T13:45:01.849Z,5.40
2023-09-08T13:47:29.914Z,5.18
2023-09-08T13:49:59.112Z,4.90
2023-09-08T13:52:29.104Z,5.68
2023-09-08T13:57:30.819Z,5.78
2023-09-08T13:59:58.668Z,5.38
2023-09-08T14:05:02.680Z,5.05
2023-09-08T14:10:06.095Z,5.75
2023-09-08T14:12:43.014Z,5.45
2023-09-08T14:15:10.723Z,5.20
2023-09-08T14:17:37.725Z,5.15
2023-09-08T14:20:06.921Z,5.63
2023-09-08T14:22:34.000Z,5.18
2023-09-08T14:25:00.936Z,5.18
2023-09-08T14:27:27.883Z,5.33
2023-09-08T14:29:56.118Z,5.25
2023-09-08T14:32:23.272Z,5.28
2023-09-08T14:34:50.374Z,5.13
2023-09-08T14:37:17.405Z,4.93
2023-09-08T14:39:44.283Z,5.10
2023-09-08T14:42:11.343Z,5.45
2023-09-08T14:44:38.334Z,5.55
2023-09-08T14:47:05.313Z,5.45
2023-09-08T14:49:32.323Z,4.88
2023-09-08T14:51:59.413Z,5.40
2023-09-08T14:54:27.494Z,4.80
2023-09-08T14:56:55.372Z,5.22
2023-09-08T14:59:22.716Z,4.88
2023-09-08T15:01:52.292Z,5.28
2023-09-08T15:04:19.410Z,5.33
2023-09-08T15:06:46.441Z,5.22
2023-09-08T15:09:13.628Z,4.80
2023-09-08T15:11:40.659Z,5.38
2023-09-08T15:14:07.836Z,4.82
2023-09-08T15:16:34.860Z,4.97
2023-09-08T15:19:01.851Z,4.97
2023-09-08T15:21:31.029Z,4.88
2023-09-08T15:23:58.067Z,5.07
2023-09-08T15:26:25.196Z,4.90
2023-09-08T15:28:53.592Z,4.77
2023-09-08T15:31:20.824Z,5.25
2023-09-08T15:33:48.049Z,5.10
2023-09-08T15:36:16.925Z,4.60
2023-09-08T15:38:44.065Z,5.22
2023-09-08T15:41:12.130Z,4.77
2023-09-08T15:43:40.935Z,5.22
2023-09-08T15:46:09.199Z,5.10
2023-09-08T15:48:37.814Z,5.22
2023-09-08T15:51:05.588Z,5.05
2023-09-08T15:53:35.526Z,5.17
2023-09-08T15:56:02.856Z,5.85
2023-09-08T15:58:29.947Z,5.18
2023-09-08T16:00:57.062Z,5.00
2023-09-08T16:03:24.358Z,5.25
2023-09-08T16:05:51.623Z,4.80
2023-09-08T16:08:18.598Z,5.25
2023-09-08T16:10:47.176Z,5.50
2023-09-08T16:13:14.270Z,5.00
2023-09-08T16:15:41.294Z,5.28
2023-09-08T16:18:10.901Z,5.17
2023-09-08T16:20:41.899Z,4.88
2023-09-08T16:23:10.174Z,5.32
2023-09-08T16:25:37.192Z,5.30
2023-09-08T16:28:04.502Z,5.35
2023-09-08T16:30:31.402Z,5.20
2023-09-08T16:32:58.566Z,5.45
2023-09-08T16:35:26.908Z,6.00
2023-09-08T16:37:53.958Z,5.38
2023-09-08T16:40:23.432Z,6.20
2023-09-08T16:42:50.792Z,6.10
2023-09-08T16:45:17.864Z,5.93
2023-09-08T16:47:44.949Z,6.95
2023-09-08T16:50:12.045Z,6.43
2023-09-08T16:52:39.103Z,5.90
2023-09-08T16:55:12.131Z,6.03
2023-09-08T16:57:42.493Z,6.40
2023-09-08T17:00:09.887Z,6.32
2023-09-08T17:02:38.017Z,6.38
2023-09-08T17:05:05.878Z,6.15
2023-09-08T17:07:33.354Z,6.30
2023-09-08T17:10:00.777Z,5.97
2023-09-08T17:12:28.089Z,7.10
2023-09-08T17:14:55.667Z,7.40
2023-09-08T17:17:22.977Z,7.20
2023-09-08T17:19:49.926Z,7.67
2023-09-08T17:22:16.885Z,6.82
2023-09-08T17:24:43.975Z,6.30
2023-09-08T17:27:11.293Z,6.75
2023-09-08T17:29:38.643Z,6.72
2023-09-08T17:32:06.220Z,6.60
2023-09-08T17:34:33.219Z,5.97
2023-09-08T17:37:03.700Z,6.63
2023-09-08T17:39:30.979Z,6.70
2023-09-08T17:41:57.906Z,6.93
2023-09-08T17:44:25.113Z,6.83
2023-09-08T17:46:52.257Z,7.63
2023-09-08T17:49:19.368Z,6.60
2023-09-08T17:51:46.330Z,6.72
2023-09-08T17:54:13.589Z,7.20
2023-09-08T17:56:40.572Z,6.97
2023-09-08T17:59:07.723Z,6.93
2023-09-08T18:01:37.935Z,6.70
2023-09-08T18:04:05.514Z,6.45
2023-09-08T18:06:32.654Z,6.85
2023-09-08T18:08:59.757Z,6.23
2023-09-08T18:11:26.868Z,6.25
2023-09-08T18:13:53.978Z,6.80
2023-09-08T18:16:20.981Z,6.22
2023-09-08T18:18:48.443Z,6.93
2023-09-08T18:21:15.460Z,6.70
2023-09-08T18:23:42.900Z,6.75
2023-09-08T18:26:10.026Z,6.60
2023-09-08T18:28:37.015Z,6.85
2023-09-08T18:31:04.206Z,6.68
2023-09-08T18:33:31.382Z,7.00
2023-09-08T18:35:58.904Z,6.85
2023-09-08T18:38:26.655Z,7.28
2023-09-08T18:40:53.866Z,6.47
2023-09-08T18:43:21.125Z,7.30
2023-09-08T18:45:48.514Z,7.13
2023-09-08T18:48:15.631Z,7.22
2023-09-08T18:50:43.209Z,7.45
2023-09-08T18:53:11.199Z,7.47
2023-09-08T18:55:38.197Z,7.18
2023-09-08T18:58:06.461Z,7.80
2023-09-08T19:00:33.745Z,8.23
2023-09-08T19:03:04.409Z,7.45
2023-09-08T19:05:31.543Z,7.88
2023-09-08T19:07:58.538Z,7.38
2023-09-08T19:10:25.505Z,7.70
2023-09-08T19:12:52.482Z,7.43
2023-09-08T19:15:19.441Z,7.90
2023-09-08T19:17:46.894Z,7.78
2023-09-08T19:20:14.050Z,8.00
2023-09-08T19:22:41.179Z,7.13
2023-09-08T19:25:09.556Z,7.38
2023-09-08T19:27:37.343Z,7.75
2023-09-08T19:30:07.178Z,7.22
2023-09-08T19:32:34.500Z,6.93
2023-09-08T19:35:01.505Z,7.73
2023-09-08T19:37:28.628Z,7.53
2023-09-08T19:39:55.647Z,7.38
2023-09-08T19:42:22.738Z,6.90
2023-09-08T19:44:49.653Z,7.45
2023-09-08T19:47:16.740Z,7.73
2023-09-08T19:49:43.920Z,8.55
2023-09-08T19:52:15.809Z,8.00
2023-09-08T19:54:42.852Z,8.25
2023-09-08T19:57:10.160Z,8.00
2023-09-08T19:59:37.586Z,9.07
2023-09-08T20:02:04.727Z,8.40
2023-09-08T20:04:31.725Z,8.68
2023-09-08T20:06:58.790Z,7.70
2023-09-08T20:09:26.682Z,8.48
2023-09-08T20:11:54.045Z,9.07
2023-09-08T20:14:21.174Z,9.13
2023-09-08T20:16:48.241Z,9.40
2023-09-08T20:19:15.285Z,8.57
2023-09-08T20:21:42.266Z,8.85
2023-09-08T20:24:09.516Z,8.50
2023-09-08T20:26:36.676Z,8.30
2023-09-08T20:29:03.787Z,8.15
2023-09-08T20:31:31.090Z,7.95
2023-09-08T20:33:58.119Z,8.23
2023-09-08T20:36:25.096Z,8.00
2023-09-08T20:38:52.140Z,8.07
2023-09-08T20:41:19.203Z,7.70
2023-09-08T20:43:47.472Z,7.65
2023-09-08T20:46:14.626Z,8.73
2023-09-08T20:48:41.884Z,8.37
2023-09-08T20:51:10.782Z,8.85
2023-09-08T20:53:40.433Z,8.43
2023-09-08T20:56:11.376Z,8.40
2023-09-08T20:58:40.106Z,8.32
2023-09-08T21:01:07.342Z,8.93
2023-09-08T21:03:36.162Z,8.25
2023-09-08T21:06:03.840Z,7.90
2023-09-08T21:08:33.424Z,7.80
2023-09-08T21:11:00.523Z,8.23
2023-09-08T21:13:27.590Z,8.20
2023-09-08T21:15:54.674Z,8.00
2023-09-08T21:18:21.784Z,8.80
2023-09-08T21:20:49.545Z,8.88
2023-09-08T21:23:18.230Z,9.20
2023-09-08T21:25:45.328Z,8.10
2023-09-08T21:28:12.360Z,8.57
2023-09-08T21:30:39.497Z,8.32
2023-09-08T21:33:07.025Z,8.57
2023-09-08T21:35:34.189Z,9.00
2023-09-08T21:38:01.136Z,8.57
2023-09-08T21:40:28.225Z,9.18
2023-09-08T21:42:55.314Z,8.80
2023-09-08T21:45:22.326Z,8.45
2023-09-08T21:47:51.461Z,9.40
2023-09-08T21:50:19.172Z,8.23
2023-09-08T21:52:46.575Z,8.57
2023-09-08T21:55:14.291Z,9.05
2023-09-08T21:57:41.613Z,8.70
2023-09-08T22:00:12.539Z,9.52
2023-09-08T22:02:39.834Z,8.50
2023-09-08T22:05:07.318Z,8.95
2023-09-08T22:07:34.609Z,9.05
2023-09-08T22:10:01.725Z,9.38
2023-09-08T22:12:28.831Z,9.02
2023-09-08T22:14:56.735Z,8.83
2023-09-08T22:17:24.006Z,9.05
2023-09-08T22:19:54.030Z,9.18
2023-09-08T22:22:21.062Z,8.95
2023-09-08T22:24:48.085Z,9.95
2023-09-08T22:27:15.751Z,9.30
2023-09-08T22:29:42.710Z,9.52
2023-09-08T22:32:09.754Z,9.70
2023-09-08T22:34:36.815Z,8.70
2023-09-08T22:37:04.268Z,9.25
2023-09-08T22:39:31.254Z,9.00
2023-09-08T22:41:58.255Z,10.27
2023-09-08T22:44:25.181Z,9.93
2023-09-08T22:46:52.191Z,9.70
2023-09-08T22:49:19.151Z,9.93
2023-09-08T22:51:46.113Z,10.27
2023-09-08T22:54:13.109Z,10.35
2023-09-08T22:56:40.202Z,10.07
2023-09-08T22:59:07.137Z,10.20
2023-09-08T23:01:34.288Z,10.38
2023-09-08T23:04:01.482Z,10.73
2023-09-08T23:06:28.531Z,9.93
2023-09-08T23:08:55.516Z,10.40
2023-09-08T23:11:22.482Z,10.80
2023-09-08T23:13:49.577Z,10.27
2023-09-08T23:16:16.584Z,9.63
2023-09-08T23:18:43.564Z,9.52
2023-09-08T23:21:10.640Z,9.90
2023-09-08T23:23:37.824Z,9.75
2023-09-08T23:26:05.137Z,11.75
2023-09-08T23:28:32.326Z,10.27
2023-09-08T23:30:59.504Z,9.90
2023-09-08T23:33:26.627Z,10.05
2023-09-08T23:35:53.711Z,10.60
2023-09-08T23:38:20.772Z,10.80
2023-09-08T23:40:48.609Z,10.17
2023-09-08T23:43:15.784Z,10.80
2023-09-08T23:45:46.846Z,10.43
2023-09-08T23:48:14.054Z,10.15
2023-09-08T23:50:50.509Z,11.25
2023-09-08T23:53:17.953Z,10.53
2023-09-08T23:55:45.397Z,11.85
2023-09-08T23:58:12.574Z,10.50
